Relevés horaires Schaffen (Belgique)


Relevés horaires à Schaffen - Mercredi 14 Avr. 2021
Heure UTC1 Température [°C] Vent [km/h] Hum. [%] Pres.4 [hPa] Visi. [Km] Nébu. [octa] Préc.5 [mm] Cond.
2m. Res. Ros. Dir.2 Vit. Moy. Raf.3
23:00 2.7 2.7 -1.1 N 3.7 -- 5.6 76 1031(0.2/3h) 20 -- -- --
22:00 2.9 2.9 -1.2 N 3.7 -- 7.4 74 1031(0.7/3h) 20 -- -- --
21:00 3.8 3.8 -0.7 NNE 3.7 -- 13.0 72 1031(1.3/3h) 20 -- -- --
20:00 5.1 4 -1.1 NE 5.6 -- 9.3 64 1030.7(1.0/3h) 20 5/8 -- --
19:00 4.7 2.9 -1.4 N 7.4 -- 13.0 65 1030.2(0.4/3h) 20 -- -- --
18:00 6.1 6.1 -0.3 NNO 1.9 -- 16.7 63 1029.5(-0.4/3h) 20 -- -- NA
17:00 7.0 7.0 -1.9 N 3.7 -- 16.7 53 1029.5(-0.6/3h) 20 -- -- --
16:00 7.4 5.3 -1.4 N 11.1 -- 16.7 54 1029.7(-1.0/3h) 20 -- -- --
15:00 8.1 8.1 -1.6 NNO 1.9 -- 13.0 50 1030(-1.1/3h) 20 -- -- NA
14:00 8.0 8.0 -2.6 N 3.7 -- 7.4 47 1030.2(-0.8/3h) 20 5/8 -- --
13:00 8.4 8.4 -2.9 NNO 1.9 -- 3.7 45 1030.7(-0.7/3h) 20 5/8 -- --
12:00 7.3 7.3 -3.5 NNO 1.9 -- 9.3 46 1031(-0.4/3h) 20 -- -- --
11:00 7.4 7.4 -4.1 N 3.7 -- 7.4 44 1031(-0.5/3h) 20 -- -- --
10:00 7.6 7.6 -6.0 NNO 1.9 -- 7.4 37 1031.4(-0.2/3h) 20 -- -- --
09:00 7.9 7.9 -3.2 NNO 1.9 -- 9.3 45 1031.5(0.1/3h) 20 3/8 -- --
08:00 6.6 5.7 -1.4 SSO 5.6 -- 7.4 57 1031.7(0.5/3h) 20 3/8 -- --
07:00 3.9 3.9 0.1 NNO 1.9 -- 3.7 76 1031.7(0.4/3h) 19 -- -- --
06:00 0.9 0.9 -1.4 NNO 1.9 -- 5.6 85 1031.5(0.0/3h) 19 -- -- --
05:00 0.5 0.5 -2.8 NNO 1.9 -- 5.6 78 1031.4(-0.5/3h) 20 -- -- --
04:00 -0.2 -0.2 -3.1 NNO 1.9 -- 5.6 81 1031.5(-0.6/3h) 19 -- -- --
03:00 2.1 2.1 -3.0 NNO 1.9 -- 3.7 69 1031.7(-0.5/3h) 20 -- -- --
02:00 1.5 1.5 -3.4 NNO 1.9 -- 1.9 70 1031.9(-0.5/3h) 20 -- -- --
01:00 2.7 2.7 -3.4 NNO 1.9 -- 3.7 64 1032(-0.6/3h) 20 -- -- --
00:00 0.9 0.9 -2.3 NNO 3.7 -- 7.4 79 1032.2(-0.4/3h) 20 -- -- --

1 Coordinated Universal Time. Actuellement il est 18:00 locale et 16:00 UTC.

2 Le vent souffle depuis la direction indiquée vers la direction oposée.

3 Les rafales max. sont disponible 40 min après l'heure du relevé.

4 Pour les stations d'altitude (plus de 600m) le géopotentiel du niveau le plus proche de la pression obligatoire est indiqué.

5 Les stations disposant d'un diffuseur peuvent indiquer "trace". Cela signifie que des précipitations ont touchés le sol mais que la quantité est inférieure à 0.1 mm.

Récapitulatif de la journée
Température [°C] Vent [km/h] Ensoleillement4 [h] Precipitations totale5 [mm] Pression [Hpa]
Min1 Max.2 Moy.3 Max. Min Max.
-0.9 10.0 0 16.7 0 h 0 min 0 1029.5 1032.2

1 Température minimale relevée entre 18:00 UTC la veille et 18:00 UTC le jour donné.

2 Température maximale relevée entre 06:00 UTC le jour donné et 06:00 UTC le lendemain.

3 Vent moyen de la journée basé sur les relevés horaires.

4 Ensoleillement en heures relevé entre 06:00 UTC la veille et 06:00 UTC le jour donné.

5 Précipitations totales tombées entre 06:00 UTC la jour donné et 06:00 UTC le lendemain.

Graphiques horaires